首页
METAR-TAF:

METAR-TAF

机场 :

弗罗茨瓦夫, 波兰

纬度: 51-06N, 经度: 016-53E, 海拔: 120米

当前天气观测

该预报发布于23分钟前的02:30 UTC
风速11节,风向
温度 5°C
湿度 75%
气压 1010 hPa
能见度10公里或以上
散云层高于4800英尺

METAR: EPWR 210230Z 17011KT 9999 SCT048 05/01 Q1010

时间: 03:53 (02:53 UTC)

预报

该预报发布于23分钟前的02:30 UTC
预报有效从21日的 03点(UTC)到 22日的 03点(UTC)
风速8节,风向
能见度10公里或以上
多云层高于2500英尺
成为
从 21日的 04点(UTC)到 21日的 06点(UTC)
风速18节,风向西,有时为28节阵风
短暂存在
从 21日的 04点(UTC)到 21日的 10点(UTC)
风速24节,风向西,有时为38节阵风
能見度: 4000
多云层高于1400英尺
几率 40% :
短暂存在
从 21日的 04点(UTC)到 21日的 10点(UTC)
多云层高于800英尺
多云层高于1400英尺, 积雨云.
阵雨
短暂存在
从 21日的 13点(UTC)到 21日的 18点(UTC)
多云层高于2000英尺, 积雨云.
阵雨
成为
从 21日的 16点(UTC)到 21日的 19点(UTC)
风速8节,风向西转西南

TAF: EPWR 210230Z 2103/2203 18008KT 9999 BKN025 BECMG 2104/2106 28018G28KT TEMPO 2104/2110 28024G38KT 4000 RA BKN014 PROB40 TEMPO 2104/2110 SHRA BKN008 BKN014CB TEMPO 2113/2118 SHRA BKN020CB BECMG 2116/2119 24008KT

超过4000个机场的气象观测和天气预报(METAR&TAF报告)。

可查询的气象台以黄色和红色小点在地图上表示。

将鼠标移到小点上方,可查看气象台名称。

然后点击查看天气观测和预报。

如需切换地图:点击带黑十字的绿色按钮放大地图;点击带横线的绿色按钮缩小地图;或者点击绿色箭头查看邻近地区的地图。


METAR-TAF: